This is the latest recevied weather packets stored in our database for station/object KA3ZXO. If no packets are shown the sender has not sent any weather packets the latest 10 day(s).
| Time | Temp. | Humidity | Pressure | Rain* | Wind** | Luminosity | Snow |
|---|---|---|---|---|---|---|---|
| 1777464143 | 12.78° C | 79% | 1014.5 hPa | 0 mm | - | 35 W/m² | - |
| 1777463538 | 12.78° C | 79% | 1014.8 hPa | 0 mm | - | 30 W/m² | - |
| 1777462935 | 12.78° C | 79% | 1014.9 hPa | 0 mm | - | 23 W/m² | - |
| 1777462333 | 12.22° C | 79% | 1014.9 hPa | 0 mm | - | 22 W/m² | - |
| 1777461732 | 12.22° C | 79% | 1014.7 hPa | 0 mm | - | 21 W/m² | - |
| 1777461130 | 12.22° C | 79% | 1014.8 hPa | 0 mm | - | 18 W/m² | - |
| 1777460527 | 11.67° C | 79% | 1015 hPa | 0 mm | - | 13 W/m² | - |
| 1777459926 | 11.67° C | 80% | 1015.3 hPa | 0 mm | - | 7 W/m² | - |
| 1777459325 | 11.67° C | 82% | 1015.3 hPa | 0 mm | - | 3 W/m² | - |
| 1777458720 | 11.67° C | 81% | 1015.2 hPa | 0 mm | - | 2 W/m² | - |
| 1777458119 | 11.67° C | 79% | 1015 hPa | 0 mm | - | 1 W/m² | - |
| 1777457514 | 11.67° C | 79% | 1015.1 hPa | 0 mm | - | 1 W/m² | - |
| 1777456912 | 11.11° C | 81% | 1015.1 hPa | 0 mm | - | 0 W/m² | - |
| 1777456309 | 10.56° C | 82% | 1015.3 hPa | 0 mm | - | 0 W/m² | - |
| 1777455707 | 9.44° C | 89% | 1015.5 hPa | 0 mm | - | 0 W/m² | - |
| 1777455107 | 9.44° C | 90% | 1015.4 hPa | 0 mm | - | 0 W/m² | - |
| 1777454505 | 9.44° C | 89% | 1015.2 hPa | 0 mm | - | 0 W/m² | - |
| 1777453905 | 9.44° C | 88% | 1015.1 hPa | 0 mm | - | 0 W/m² | - |
| 1777453304 | 10° C | 87% | 1015.1 hPa | 0 mm | - | 0 W/m² | - |
| 1777452699 | 10.56° C | 83% | 1015.1 hPa | 0 mm | - | 0 W/m² | - |
| 1777452097 | 10.56° C | 82% | 1015.1 hPa | 0 mm | - | 0 W/m² | - |
| 1777451494 | 10.56° C | 82% | 1014.9 hPa | 0 mm | - | 0 W/m² | - |
| 1777450892 | 10.56° C | 82% | 1014.8 hPa | 0 mm | - | 0 W/m² | - |
| 1777450290 | 10° C | 83% | 1015 hPa | 0 mm | - | 0 W/m² | - |
| 1777449688 | 10° C | 86% | 1015.1 hPa | 0 mm | - | 0 W/m² | - |
* Rain latest hour (hover to see other rain measurements)
** Current wind speed in m/s (hover to see current wind gust speed)